Latest Weather Observations for Woomera

IDS60801

Issued at 7:21 am CDT Tuesday 15 October 2019 (issued every 10 minutes, with the page automatically refreshed every 10 minutes)

About weather observations | Map of weather stations | Latest weather observations for SA | Other Formats
Station Details ID: 016001 Name: WOOMERA AERODROME Lat: -31.16 Lon: 136.81 Height: 166.6 m
Data from the previous 72 hours. | See also: Recent months at Woomera
Date/Time
CDT
Temp
°C
App
Temp
°C
Dew
Point
°C
Rel
Hum
%
Delta-T
°C
Wind Press
QNH
hPa
Press
MSL
hPa
Rain since
9am
mm
Dir  Spd
km/h
Gust
km/h
Spd
kts
Gust
kts
15/07:00am 15.6 11.8 7.4 58 4.1 SSE 17 24 9 13 1013.6 1013.1 0.0
15/06:30am 15.4 11.9 7.2 58 4.1 SSE 15 19 8 10 1013.9 1013.4 0.0
15/06:00am 16.0 11.8 7.5 57 4.3 ESE 19 22 10 12 1013.3 1012.8 0.0
15/05:30am 16.0 11.7 7.2 56 4.4 SE 19 22 10 12 1013.1 1012.6 0.0
15/05:00am 16.1 12.2 7.3 56 4.4 SE 17 20 9 11 1013.1 1012.6 0.0
15/04:30am 16.5 11.7 7.2 54 4.7 SE 22 28 12 15 1013.1 1012.6 0.0
15/04:00am 16.9 11.5 6.4 50 5.2 SE 24 30 13 16 1013.0 1012.5 0.0
15/03:30am 17.1 12.4 6.0 48 5.5 SE 20 24 11 13 1013.7 1013.2 0.0
15/03:00am 17.5 13.8 6.1 47 5.6 SSE 15 19 8 10 1014.0 1013.5 0.0
15/02:30am 17.9 13.7 5.8 45 6.0 SE 17 20 9 11 1014.1 1013.6 0.0
15/02:00am 18.0 14.5 5.6 44 6.1 ESE 13 15 7 8 1014.3 1013.8 0.0
15/01:30am 17.7 14.9 5.0 43 6.1 S 9 11 5 6 1015.0 1014.6 0.0
15/01:00am 18.2 15.6 4.4 40 6.6 SW 7 11 4 6 1015.4 1015.0 0.0
15/12:30am 19.7 16.2 5.4 39 7.1 SE 13 17 7 9 1015.5 1015.1 0.0
15/12:00am 20.0 16.1 5.3 38 7.3 SE 15 17 8 9 1015.3 1014.9 0.0
 
Date/Time
CDT
Temp
°C
App
Temp
°C
Dew
Point
°C
Rel
Hum
%
Delta-T
°C
Wind Press
QNH
hPa
Press
MSL
hPa
Rain since
9am
mm
Dir  Spd
km/h
Gust
km/h
Spd
kts
Gust
kts
14/11:30pm 20.6 16.6 5.0 36 7.7 ESE 15 19 8 10 1015.0 1014.6 0.0
14/11:00pm 21.1 16.7 4.6 34 8.1 ESE 17 20 9 11 1014.8 1014.4 0.0
14/10:30pm 22.3 18.8 -1.1 21 10.4 ESE 7 9 4 5 1014.3 1013.8 0.0
14/10:00pm 22.3 18.8 -1.1 21 10.4 ESE 7 9 4 5 1014.2 1013.7 0.0
14/09:30pm 23.5 19.4 -0.1 21 10.8 SSE 11 13 6 7 1014.4 1013.9 0.0
14/09:00pm 24.3 20.8 1.2 22 10.9 SSE 9 19 5 10 1014.0 1013.5 0.0
14/08:30pm 24.5 19.6 2.0 23 10.8 S 17 24 9 13 1014.0 1013.5 0.0
14/08:00pm 24.6 19.8 0.2 20 11.3 SSW 15 20 8 11 1014.6 1014.1 0.0
14/07:30pm 25.0 19.0 -3.4 15 12.4 SW 19 24 10 13 1014.7 1014.2 0.0
14/07:00pm 25.5 19.1 -4.9 13 12.9 WSW 20 24 11 13 1014.6 1014.1 0.0
14/06:30pm 25.8 20.7 0.5 19 11.9 SSW 17 20 9 11 1014.3 1013.8 0.0
14/06:00pm 26.4 20.9 0.9 19 12.1 SW 19 24 10 13 1014.1 1013.6 0.0
14/05:30pm 25.9 21.4 1.9 21 11.6 SSW 15 20 8 11 1013.9 1013.4 0.0
14/05:00pm 26.3 20.9 2.3 21 11.7 SW 20 30 11 16 1013.7 1013.2 0.0
14/04:30pm 25.9 20.5 2.6 22 11.4 SW 20 30 11 16 1013.8 1013.3 0.0
14/04:00pm 25.9 20.6 3.2 23 11.2 SSW 20 30 11 16 1014.0 1013.5 0.0
14/03:30pm 25.4 20.2 3.4 24 10.9 SW 20 28 11 15 1014.3 1013.8 0.0
14/03:00pm 25.1 19.6 1.9 22 11.1 SSW 20 30 11 16 1014.5 1014.0 0.0
14/02:30pm 24.9 18.8 0.4 20 11.4 SW 22 32 12 17 1014.8 1014.4 0.0
14/02:00pm 24.1 18.4 0.4 21 11.0 SW 20 28 11 15 1014.9 1014.5 0.0
14/01:30pm 23.5 18.8 2.9 26 10.0 SSW 17 24 9 13 1015.0 1014.6 0.0
14/01:00pm 23.0 19.2 4.0 29 9.4 SSW 13 22 7 12 1015.3 1014.9 0.0
14/12:30pm 22.0 18.5 5.4 34 8.3 S 13 20 7 11 1015.8 1015.4 0.0
14/12:00pm 20.5 17.1 6.1 39 7.2 SSE 13 19 7 10 1016.2 1015.8 0.0
14/11:30am 19.5 16.3 6.9 44 6.4 SSE 13 20 7 11 1016.5 1016.1 0.0
14/11:00am 18.4 14.5 7.2 48 5.7 S 17 24 9 13 1016.7 1016.3 0.0
14/10:30am 17.7 13.6 7.7 52 5.1 S 19 26 10 14 1016.4 1016.0 0.0
14/10:00am 17.0 12.8 8.2 56 4.5 S 20 28 11 15 1016.6 1016.2 0.0
14/09:30am 15.5 10.6 8.5 63 3.6 SSE 24 32 13 17 1016.4 1016.0 0.0
14/09:00am 15.0 9.8 8.9 67 3.1 S 26 33 14 18 1016.1 1015.7 0.0
14/08:30am 14.7 9.6 9.1 69 2.9 S 26 35 14 19 1016.0 1015.6 0.0
14/08:00am 13.6 8.1 9.3 75 2.2 S 28 37 15 20 1015.8 1015.4 0.0
14/07:30am 13.0 7.9 9.1 77 2.0 S 26 35 14 19 1015.4 1015.0 0.0
14/07:00am 12.5 9.4 8.8 78 1.9 S 15 20 8 11 1015.2 1014.8 0.0
14/06:30am 12.8 9.4 9.1 78 1.9 S 17 22 9 12 1015.1 1014.7 0.0
14/06:00am 13.0 8.6 8.9 76 2.1 S 22 30 12 16 1014.7 1014.2 0.0
14/05:30am 13.3 8.9 8.8 74 2.3 S 22 30 12 16 1014.3 1013.8 0.0
14/05:00am 13.6 9.3 9.3 75 2.2 S 22 28 12 15 1014.2 1013.7 0.0
14/04:30am 14.0 9.3 9.2 73 2.5 S 24 30 13 16 1014.0 1013.5 0.0
14/04:00am 14.6 9.3 9.8 73 2.5 SSW 28 37 15 20 1014.0 1013.5 0.0
14/03:30am 15.1 10.3 10.3 73 2.5 SSW 26 32 14 17 1014.2 1013.7 0.0
14/03:00am 15.7 10.6 10.5 71 2.8 S 28 35 15 19 1014.0 1013.5 0.0
14/02:30am 16.4 11.3 10.5 68 3.2 S 28 37 15 20 1014.2 1013.7 0.0
14/02:00am 17.1 12.0 10.7 66 3.5 SSW 28 33 15 18 1014.5 1014.0 0.0
14/01:30am 17.8 13.3 11.4 66 3.5 SSW 26 37 14 20 1015.0 1014.6 0.0
14/01:00am 18.3 14.6 11.6 65 3.7 SSW 22 30 12 16 1014.8 1014.4 0.0
14/12:30am 19.1 14.8 11.9 63 4.0 SSW 26 33 14 18 1014.6 1014.1 0.0
14/12:00am 20.2 17.0 11.1 56 5.0 SSW 19 26 10 14 1014.5 1014.0 0.0
 
Date/Time
CDT
Temp
°C
App
Temp
°C
Dew
Point
°C
Rel
Hum
%
Delta-T
°C
Wind Press
QNH
hPa
Press
MSL
hPa
Rain since
9am
mm
Dir  Spd
km/h
Gust
km/h
Spd
kts
Gust
kts
13/11:30pm 20.7 17.5 11.3 55 5.2 SSW 19 24 10 13 1014.5 1014.0 0.0
13/11:00pm 20.9 17.5 11.3 54 5.3 SSW 20 28 11 15 1014.4 1013.9 0.0
13/10:30pm 21.6 17.6 11.9 54 5.5 SSW 24 30 13 16 1014.3 1013.8 0.0
13/10:00pm 22.1 17.9 12.4 54 5.5 SSW 26 35 14 19 1014.2 1013.7 0.0
13/09:30pm 22.7 16.7 12.0 50 6.1 SSW 35 44 19 24 1014.0 1013.5 0.0
13/09:00pm 23.8 18.0 11.5 46 7.0 SSW 33 43 18 23 1013.2 1012.7 0.0
13/08:30pm 25.2 19.1 10.3 39 8.3 SW 33 43 18 23 1012.5 1012.0 0.0
13/08:00pm 26.6 20.0 9.9 35 9.3 SW 35 44 19 24 1011.9 1011.4 0.0
13/07:30pm 27.8 21.9 9.1 31 10.4 SW 30 39 16 21 1011.4 1010.9 0.0
13/07:00pm 28.6 21.9 8.3 28 11.2 SW 33 41 18 22 1010.8 1010.4 0.0
13/06:30pm 30.0 23.2 7.8 25 12.2 SW 33 41 18 22 1010.1 1009.7 0.0
13/06:00pm 31.2 24.6 7.6 23 13.0 SSW 32 46 17 25 1009.7 1009.3 0.0
13/05:30pm 32.3 26.1 4.2 17 14.7 WSW 26 41 14 22 1009.5 1009.0 0.0
13/05:28pm 32.6 26.0 4.4 17 14.9 WSW 28 41 15 22 1009.4 1008.9 0.0
13/05:00pm 32.9 28.9 2.9 15 15.4 W 13 22 7 12 1009.1 1008.6 0.0
13/04:30pm 31.8 27.9 1.0 14 15.3 SSW 11 22 6 12 1009.2 1008.7 0.0
13/04:00pm 31.0 27.6 -0.6 13 15.2 SSE 7 15 4 8 1009.4 1008.9 0.0
13/03:30pm 30.4 26.0 -2.2 12 15.2 S 11 20 6 11 1009.8 1009.4 0.0
13/03:00pm 29.8 25.6 -3.8 11 15.1 SSW 9 13 5 7 1010.5 1010.1 0.0
13/02:30pm 29.3 25.6 -4.2 11 14.9 NNE 6 9 3 5 1011.4 1010.9 0.0
13/02:00pm 29.1 23.7 -4.3 11 14.8 SE 15 26 8 14 1010.9 1010.5 0.0
13/01:30pm 28.4 23.3 -4.9 11 14.5 SSE 13 17 7 9 1011.7 1011.2 0.0
13/01:00pm 28.1 20.3 -3.9 12 14.2 SSW 28 39 15 21 1012.4 1011.9 0.0
13/12:54pm 28.6 21.5 -4.7 11 14.6 SSW 24 39 13 21 1012.5 1012.0 0.0
13/12:30pm 28.0 23.3 -5.2 11 14.4 SSW 11 17 6 9 1012.4 1011.9 0.0
13/12:00pm 27.8 23.8 -5.3 11 14.3 NW 7 15 4 8 1012.9 1012.4 0.0
13/11:30am 26.7 21.2 -5.0 12 13.6 NNW 15 20 8 11 1013.6 1013.1 0.0
13/11:00am 25.2 19.4 -4.2 14 12.6 N 17 20 9 11 1013.4 1012.9 0.0
13/10:30am 25.4 19.3 -4.0 14 12.7 NE 19 26 10 14 1012.5 1012.0 0.0
13/10:00am 24.8 20.5 -4.5 14 12.5 SE 9 13 5 7 1012.7 1012.2 0.0
13/09:30am 24.3 20.1 -4.0 15 12.1 WNW 9 17 5 9 1013.5 1013.0 0.0
13/09:00am 24.8 18.7 -3.6 15 12.3 NNE 19 26 10 14 1012.8 1012.3 0.0
13/08:30am 24.2 19.6 -4.0 15 12.1 ENE 11 15 6 8 1012.2 1011.7 0.0
13/08:00am 22.5 17.5 -4.5 16 11.3 NE 13 15 7 8 1011.9 1011.4 0.0
13/07:30am 19.5 15.2 -4.7 19 9.8 ENE 9 13 5 7 1011.6 1011.1 0.0
13/07:00am 18.8 13.3 -5.3 19 9.5 NNE 15 15 8 8 1011.3 1010.8 0.0
13/06:30am 20.1 14.7 -4.9 18 10.1 NE 15 20 8 11 1010.7 1010.3 0.0
13/06:00am 21.3 16.3 -4.0 18 10.5 N 13 17 7 9 1011.2 1010.7 0.0
13/05:30am 20.5 16.1 -5.4 17 10.4 WNW 9 13 5 7 1011.2 1010.7 0.0
13/05:00am 18.2 13.0 -5.8 19 9.3 W 13 15 7 8 1010.5 1010.1 0.0
13/04:30am 18.1 13.3 -5.9 19 9.3 WNW 11 15 6 8 1009.8 1009.4 0.0
13/04:00am 18.8 14.4 -6.0 18 9.7 NW 9 13 5 7 1009.6 1009.2 0.0
13/03:30am 20.7 14.8 -5.2 17 10.5 ENE 17 19 9 10 1009.5 1009.0 0.0
13/03:00am 21.0 15.2 -4.9 17 10.6 NE 17 19 9 10 1009.5 1009.0 0.0
13/02:30am 21.9 15.5 -5.0 16 11.1 ENE 20 24 11 13 1009.2 1008.7 0.0
13/02:00am 22.5 16.2 -5.4 15 11.4 ENE 19 20 10 11 1009.9 1009.5 0.0
13/01:30am 23.2 16.7 -5.7 14 11.9 ENE 20 22 11 12 1009.9 1009.5 0.0
13/01:00am 24.8 18.9 -5.5 13 12.7 NE 17 20 9 11 1010.6 1010.2 0.0
13/12:30am 26.0 19.2 -5.6 12 13.3 NE 22 28 12 15 1010.3 1009.9 0.0
13/12:00am 25.3 20.1 -6.1 12 13.0 ENE 13 15 7 8 1010.6 1010.2 0.0
 
Date/Time
CDT
Temp
°C
App
Temp
°C
Dew
Point
°C
Rel
Hum
%
Delta-T
°C
Wind Press
QNH
hPa
Press
MSL
hPa
Rain since
9am
mm
Dir  Spd
km/h
Gust
km/h
Spd
kts
Gust
kts
12/11:30pm 25.0 19.4 -6.3 12 12.9 E 15 17 8 9 1010.1 1009.7 0.0
12/11:00pm 26.4 21.5 -7.6 10 13.9 ENE 11 13 6 7 1010.1 1009.7 0.0
12/10:30pm 28.1 23.8 -5.1 11 14.4 NE 9 20 5 11 1010.0 1009.6 0.0
12/10:00pm 25.7 19.9 -8.2 10 13.6 NE 15 17 8 9 1010.4 1010.0 0.0
12/09:30pm 28.1 23.3 -6.3 10 14.6 NE 11 13 6 7 1010.1 1009.7 0.0
12/09:00pm 27.9 23.1 -6.5 10 14.5 NE 11 13 6 7 1009.7 1009.3 0.0
12/08:30pm 27.5 22.2 -6.8 10 14.4 NE 13 15 7 8 1009.0 1008.5 0.0
12/08:00pm 28.5 23.6 -7.4 9 15.0 NE 11 13 6 7 1008.5 1008.0 0.0
12/07:30pm 29.4 24.5 -6.7 9 15.4 NNE 11 13 6 7 1008.0 1007.5 0.0
12/07:00pm 31.5 25.9 -6.7 8 16.6 N 15 19 8 10 1007.5 1007.0 0.0
12/06:30pm 31.8 25.4 -6.5 8 16.8 N 19 26 10 14 1007.1 1006.6 0.0
12/06:00pm 32.8 25.6 -5.7 8 17.2 N 24 35 13 19 1006.6 1006.1 0.0
12/05:30pm 33.1 25.9 -5.5 8 17.4 NNE 24 35 13 19 1006.5 1006.0 0.0
12/05:00pm 33.2 25.6 -5.5 8 17.4 NNE 26 41 14 22 1006.4 1005.9 0.0
12/04:30pm 33.8 26.1 -6.8 7 18.0 NNE 26 39 14 21 1006.4 1005.9 0.0
12/04:00pm 32.8 25.2 -5.7 8 17.2 N 26 37 14 20 1006.5 1006.0 0.0
12/03:30pm 33.4 25.1 -5.3 8 17.5 NNE 30 54 16 29 1006.6 1006.1 0.0
12/03:27pm 33.8 25.9 -5.0 8 17.6 NNE 28 54 15 29 1006.6 1006.1 0.0
12/03:00pm 32.7 24.7 -5.8 8 17.2 N 28 46 15 25 1007.4 1006.9 0.0
12/02:33pm 32.8 24.8 -5.7 8 17.2 NNE 28 48 15 26 1007.4 1006.9 0.0
12/02:30pm 31.8 24.1 -6.5 8 16.8 NNE 26 41 14 22 1007.8 1007.3 0.0
12/02:00pm 31.8 24.5 -6.5 8 16.7 NNE 24 35 13 19 1008.8 1008.3 0.0
12/01:30pm 30.7 21.9 -5.8 9 16.0 NE 32 48 17 26 1009.0 1008.5 0.0
12/01:25pm 31.6 23.1 -6.6 8 16.6 NE 30 48 16 26 1009.0 1008.5 0.0
12/01:00pm 31.0 23.0 -5.5 9 16.1 NNE 28 41 15 22 1009.5 1009.0 0.0
12/12:30pm 29.8 21.1 -5.1 10 15.4 NE 32 44 17 24 1009.8 1009.4 0.0
12/12:00pm 29.2 20.8 -5.5 10 15.1 NE 30 44 16 24 1010.4 1010.0 0.0
12/11:30am 28.4 19.7 -4.9 11 14.5 NE 32 41 17 22 1010.8 1010.4 0.0
12/11:16am 28.1 19.2 -5.1 11 14.4 NE 33 41 18 22 1010.9 1010.5 0.0
12/11:00am 27.2 17.9 -5.8 11 14.0 NE 35 43 19 23 1011.3 1010.8 0.0
12/10:57am 27.3 18.3 -5.7 11 14.1 NE 33 43 18 23 1011.3 1010.8 0.0
12/10:30am 26.5 17.8 -5.2 12 13.5 NE 32 39 17 21 1011.7 1011.2 0.0
12/10:00am 25.0 16.1 -5.3 13 12.7 NE 33 43 18 23 1011.7 1011.2 0.0
12/09:30am 23.4 14.7 -5.6 14 11.9 NE 32 39 17 21 1011.7 1011.2 0.0
12/09:00am 21.7 13.8 -5.2 16 11.0 ENE 28 33 15 18 1011.9 1011.4 0.0
12/08:30am 19.3 12.8 -5.6 18 9.8 ENE 20 24 11 13 1011.9 1011.4 0.0
12/08:00am 17.4 11.1 -5.8 20 8.9 E 19 20 10 11 1011.9 1011.4 0.0
12/07:30am 15.3 9.0 -6.3 22 8.1 E 19 22 10 12 1011.8 1011.3 0.0

Other formats

Comma delimited format used in spreadsheet applications
http://www.bom.gov.au/fwo/IDS60801/IDS60801.94659.axf

JavaScript Object Notation format (JSON) in row-major order
http://www.bom.gov.au/fwo/IDS60801/IDS60801.94659.json

Data quality

Most of these data are generated automatically and are frequently updated. Quality checks on data are not normally performed. It is possible for incorrect values to appear. Refer to information at About Latest Weather Observations and please check the disclaimer before using these data.